Evansville, Minnesota
Current Conditions -  °F | °C
As of 11:55 PM on Tuesday 21 Oct 2014 (Local Time) from KY63 Reporting Station
Clear Clear  
Wind Chill: 52°   Ceiling: Unl
Heat Index: 52°   Visibility: 10mi
Dew Point: 40°   Wind: 18mph
Humidity: 64%   Direction: 140°SE
Pressure: 30"   Gusts: 23mph
Location:  46°N, 95.68°W
Report Text: KY63 220455Z AUTO 14016G20KT 10SM CLR 11/05 A3000 RMK AO2 T01110046
Loading
Personal Weather Stations






























Interactive Weather Map
Tropical Storm Tracking
New forecast layout! Learn more

10-Day Weather Forecast

Advertisements
Track Severe Weather on mobile